createdAt,value
2022-08-04T00:02:01.402Z,84.60
2022-08-04T00:04:36.221Z,85.20
2022-08-04T00:07:44.225Z,84.40
2022-08-04T00:10:13.626Z,84.50
2022-08-04T00:12:47.139Z,84.60
2022-08-04T00:15:16.756Z,84.60
2022-08-04T00:17:55.293Z,84.10
2022-08-04T00:20:23.536Z,84.80
2022-08-04T00:22:52.798Z,84.50
2022-08-04T00:25:19.926Z,84.90
2022-08-04T00:27:47.028Z,85.70
2022-08-04T00:30:13.893Z,86.40
2022-08-04T00:32:41.819Z,85.20
2022-08-04T00:35:14.935Z,85.90
2022-08-04T00:37:44.836Z,86.00
2022-08-04T00:40:11.963Z,85.30
2022-08-04T00:42:59.073Z,85.10
2022-08-04T00:46:15.931Z,85.60
2022-08-04T00:48:49.834Z,85.20
2022-08-04T00:51:43.942Z,85.00
2022-08-04T00:54:32.582Z,85.50
2022-08-04T00:57:33.871Z,85.70
2022-08-04T01:00:11.886Z,85.60
2022-08-04T01:03:05.236Z,85.90
2022-08-04T01:05:47.316Z,85.50
2022-08-04T01:08:16.941Z,85.70
2022-08-04T01:11:02.097Z,86.10
2022-08-04T01:13:53.197Z,86.40
2022-08-04T01:16:25.107Z,85.80
2022-08-04T01:19:05.782Z,86.30
2022-08-04T01:22:00.622Z,86.60
2022-08-04T01:24:54.851Z,86.40
2022-08-04T01:27:48.474Z,86.20
2022-08-04T01:30:15.900Z,86.40
2022-08-04T01:33:00.835Z,86.70
2022-08-04T01:35:46.510Z,87.20
2022-08-04T01:38:33.806Z,87.80
2022-08-04T01:41:06.905Z,87.90
2022-08-04T01:43:40.331Z,88.50
2022-08-04T01:46:10.006Z,87.80
2022-08-04T01:48:39.495Z,88.20
2022-08-04T01:51:08.471Z,88.20
2022-08-04T01:53:38.110Z,89.00
2022-08-04T01:56:07.378Z,88.90
2022-08-04T01:58:36.310Z,88.40
2022-08-04T02:01:14.059Z,88.90
2022-08-04T02:04:18.584Z,88.90
2022-08-04T02:06:49.087Z,89.80
2022-08-04T02:09:54.516Z,89.00
2022-08-04T02:12:36.947Z,89.00
2022-08-04T02:15:25.773Z,88.70
2022-08-04T02:18:11.933Z,88.80
2022-08-04T02:20:43.308Z,88.80
2022-08-04T02:23:14.444Z,89.20
2022-08-04T02:25:48.793Z,89.90
2022-08-04T02:28:23.203Z,90.10
2022-08-04T02:31:10.332Z,89.90
2022-08-04T02:33:40.757Z,89.40
2022-08-04T02:36:10.683Z,90.20
2022-08-04T02:38:53.031Z,89.90
2022-08-04T02:41:21.775Z,90.20
2022-08-04T02:43:51.018Z,90.20
2022-08-04T02:46:20.975Z,90.10
2022-08-04T02:48:49.873Z,90.60
2022-08-04T02:51:20.323Z,90.80
2022-08-04T02:53:49.503Z,90.60
2022-08-04T02:56:19.619Z,90.40
2022-08-04T02:58:53.278Z,90.50
2022-08-04T03:01:21.906Z,90.90
2022-08-04T03:04:10.157Z,90.70
2022-08-04T03:07:14.413Z,90.50
2022-08-04T03:10:22.825Z,91.10
2022-08-04T03:13:05.385Z,90.90
2022-08-04T03:16:08.907Z,91.00
2022-08-04T03:19:04.254Z,90.90
2022-08-04T03:22:17.553Z,90.90
2022-08-04T03:24:59.227Z,91.50
2022-08-04T03:27:48.871Z,91.20
2022-08-04T03:30:20.473Z,91.40
2022-08-04T03:33:09.443Z,91.60
2022-08-04T03:36:09.934Z,91.70
2022-08-04T03:38:54.798Z,92.10
2022-08-04T03:41:54.849Z,91.60
2022-08-04T03:44:49.461Z,91.90
2022-08-04T03:47:42.316Z,91.70
2022-08-04T03:50:42.173Z,92.00
2022-08-04T03:53:40.249Z,92.60
2022-08-04T03:56:27.464Z,92.60
2022-08-04T03:59:26.260Z,92.40
2022-08-04T04:02:26.820Z,92.40
2022-08-04T04:05:18.315Z,92.40
2022-08-04T04:11:15.176Z,92.40
2022-08-04T04:14:09.263Z,92.50
2022-08-04T04:17:09.283Z,92.80
2022-08-04T04:23:06.171Z,93.30
2022-08-04T04:25:59.931Z,93.60
2022-08-04T04:31:30.063Z,93.30
2022-08-04T04:34:08.983Z,93.80
2022-08-04T04:37:03.578Z,93.70
2022-08-04T04:39:58.684Z,93.70
2022-08-04T04:42:55.141Z,93.90
2022-08-04T04:48:53.312Z,94.10
2022-08-04T04:51:36.254Z,94.40
2022-08-04T04:57:51.925Z,94.90
2022-08-04T05:00:12.436Z,95.20
2022-08-04T05:03:18.604Z,94.80
2022-08-04T05:06:07.993Z,95.20
2022-08-04T05:11:51.112Z,95.40
2022-08-04T05:14:38.144Z,95.40
2022-08-04T05:20:42.163Z,95.90
2022-08-04T05:23:29.079Z,95.80
2022-08-04T05:29:07.309Z,96.00
2022-08-04T05:31:39.473Z,95.90
2022-08-04T05:34:13.996Z,95.80
2022-08-04T05:40:06.461Z,95.40
2022-08-04T05:42:38.326Z,95.50
2022-08-04T05:45:08.230Z,95.80
2022-08-04T05:47:36.412Z,95.60
2022-08-04T05:50:06.013Z,95.20
2022-08-04T05:52:34.699Z,94.70
2022-08-04T05:55:02.566Z,94.80
2022-08-04T05:57:30.639Z,94.20
2022-08-04T05:59:59.424Z,94.30
2022-08-04T06:02:30.565Z,94.30
2022-08-04T06:04:59.458Z,93.70
2022-08-04T06:07:26.909Z,94.20
2022-08-04T06:09:54.163Z,94.60
2022-08-04T06:15:44.489Z,93.80
2022-08-04T06:19:57.717Z,92.90
2022-08-04T06:21:16.192Z,93.30
2022-08-04T06:23:58.676Z,93.10
2022-08-04T06:29:30.884Z,92.50
2022-08-04T06:32:31.378Z,91.20
2022-08-04T06:34:58.735Z,91.10
2022-08-04T06:40:31.812Z,91.30
2022-08-04T06:43:06.287Z,91.10
2022-08-04T06:45:35.889Z,91.20
2022-08-04T06:48:05.016Z,91.10
2022-08-04T06:51:24.503Z,90.90
2022-08-04T06:53:21.599Z,91.40
2022-08-04T06:55:49.230Z,91.20
2022-08-04T06:58:17.630Z,91.30
2022-08-04T07:00:46.943Z,90.80
2022-08-04T07:03:13.954Z,91.10
2022-08-04T07:05:41.740Z,90.60
2022-08-04T07:08:11.099Z,90.10
2022-08-04T07:10:37.763Z,89.90
2022-08-04T07:13:05.077Z,90.90
2022-08-04T07:15:33.767Z,90.10
2022-08-04T07:18:03.559Z,90.10
2022-08-04T07:20:35.678Z,90.00
2022-08-04T07:23:07.481Z,89.80
2022-08-04T07:25:57.289Z,90.00
2022-08-04T07:28:25.224Z,89.60
2022-08-04T07:30:53.279Z,89.50
2022-08-04T07:33:20.799Z,90.00
2022-08-04T07:36:05.854Z,88.50
2022-08-04T07:38:48.365Z,88.20
2022-08-04T07:41:38.339Z,89.10
2022-08-04T07:44:05.973Z,89.40
2022-08-04T07:46:32.726Z,87.50
2022-08-04T07:49:03.653Z,87.10
2022-08-04T07:51:31.794Z,87.60
2022-08-04T07:54:00.420Z,87.40
2022-08-04T07:56:28.345Z,88.40
2022-08-04T07:58:55.735Z,87.40
2022-08-04T08:01:24.198Z,86.20
2022-08-04T08:03:52.789Z,87.20
2022-08-04T08:06:32.219Z,84.80
2022-08-04T08:09:02.307Z,86.10
2022-08-04T08:12:36.284Z,84.10
2022-08-04T08:14:27.369Z,84.50
2022-08-04T08:16:54.301Z,84.90
2022-08-04T08:19:21.121Z,83.60
2022-08-04T08:21:59.723Z,82.90
2022-08-04T08:24:28.371Z,82.50
2022-08-04T08:26:56.725Z,82.90
2022-08-04T08:29:24.412Z,82.80
2022-08-04T08:31:55.898Z,82.50
2022-08-04T08:34:27.635Z,82.10
2022-08-04T08:37:19.843Z,82.50
2022-08-04T08:40:08.127Z,82.70
2022-08-04T08:44:05.010Z,82.00
2022-08-04T08:46:48.594Z,82.20
2022-08-04T08:50:00.474Z,82.00
2022-08-04T08:53:01.244Z,82.20
2022-08-04T08:55:58.277Z,80.30
2022-08-04T08:58:49.530Z,79.70
2022-08-04T09:01:40.240Z,80.10
2022-08-04T09:04:46.162Z,79.20
2022-08-04T09:07:21.902Z,78.30
2022-08-04T09:10:02.901Z,78.90
2022-08-04T09:13:04.292Z,78.80
2022-08-04T09:15:40.000Z,78.20
2022-08-04T09:18:25.409Z,78.20
2022-08-04T09:21:00.620Z,78.30
2022-08-04T09:23:32.294Z,77.70
2022-08-04T09:26:09.141Z,76.50
2022-08-04T09:28:54.064Z,75.80
2022-08-04T09:31:28.253Z,75.50
2022-08-04T09:34:31.378Z,75.20
2022-08-04T09:37:15.579Z,75.20
2022-08-04T09:40:07.638Z,74.60
2022-08-04T09:43:22.786Z,73.60
2022-08-04T09:46:14.849Z,73.50
2022-08-04T09:48:56.927Z,73.60
2022-08-04T09:51:57.427Z,73.80
2022-08-04T09:54:42.360Z,73.30
2022-08-04T09:57:36.598Z,72.60
2022-08-04T10:00:09.415Z,72.00
2022-08-04T10:02:42.622Z,73.10
2022-08-04T10:05:14.227Z,72.90
2022-08-04T10:08:02.090Z,72.50
2022-08-04T10:11:03.842Z,72.70
2022-08-04T10:13:59.226Z,72.10
2022-08-04T10:17:06.237Z,71.40
2022-08-04T10:19:36.780Z,70.80
2022-08-04T10:22:29.019Z,70.30
2022-08-04T10:25:05.399Z,70.10
2022-08-04T10:27:57.499Z,70.00
2022-08-04T10:30:25.956Z,69.30
2022-08-04T10:33:16.893Z,68.90
2022-08-04T10:35:54.101Z,69.30
2022-08-04T10:38:49.934Z,68.60
2022-08-04T10:41:40.065Z,68.40
2022-08-04T10:44:42.251Z,68.50
2022-08-04T10:47:18.019Z,68.30
2022-08-04T10:49:54.328Z,67.90
2022-08-04T10:52:34.335Z,67.50
2022-08-04T10:55:23.300Z,67.10
2022-08-04T10:58:18.291Z,67.20
2022-08-04T11:00:46.077Z,67.40
2022-08-04T11:03:31.335Z,67.30
2022-08-04T11:05:59.166Z,68.60
2022-08-04T11:08:35.618Z,67.50
2022-08-04T11:11:33.123Z,67.40
2022-08-04T11:14:34.375Z,67.30
2022-08-04T11:17:09.580Z,66.20
2022-08-04T11:20:18.291Z,66.20
2022-08-04T11:23:18.666Z,67.60
2022-08-04T11:25:59.135Z,66.80
2022-08-04T11:28:37.361Z,65.60
2022-08-04T11:31:21.148Z,64.60
2022-08-04T11:33:58.366Z,64.50
2022-08-04T11:36:45.691Z,64.40
2022-08-04T11:39:33.180Z,63.20
2022-08-04T11:42:10.640Z,63.90
2022-08-04T11:44:37.231Z,62.80
2022-08-04T11:47:11.259Z,62.80
2022-08-04T11:49:57.425Z,62.80
2022-08-04T11:52:28.024Z,63.90
2022-08-04T11:54:55.759Z,62.50
2022-08-04T11:57:35.399Z,60.90
2022-08-04T12:00:07.763Z,61.30
2022-08-04T12:02:55.529Z,62.70
2022-08-04T12:05:37.364Z,61.30
2022-08-04T12:08:16.508Z,61.10
2022-08-04T12:10:50.742Z,60.00
2022-08-04T12:13:48.794Z,60.40
2022-08-04T12:16:24.478Z,56.60
2022-08-04T12:19:05.844Z,57.20
2022-08-04T12:21:53.318Z,58.30
2022-08-04T12:24:31.059Z,57.20
2022-08-04T12:27:04.687Z,53.80
2022-08-04T12:29:34.507Z,54.50
2022-08-04T12:32:11.702Z,55.00
2022-08-04T12:34:46.987Z,54.40
2022-08-04T12:37:23.039Z,53.70
2022-08-04T12:40:29.151Z,55.00
2022-08-04T12:42:55.877Z,55.90
2022-08-04T12:45:26.141Z,55.80
2022-08-04T12:47:56.615Z,55.00
2022-08-04T12:50:24.175Z,55.30
2022-08-04T12:53:04.537Z,55.50
2022-08-04T12:55:35.485Z,55.70
2022-08-04T12:58:11.573Z,56.00
2022-08-04T13:00:41.824Z,57.40
2022-08-04T13:03:15.999Z,56.10
2022-08-04T13:05:44.818Z,55.80
2022-08-04T13:08:12.932Z,55.90
2022-08-04T13:10:42.289Z,55.60
2022-08-04T13:13:15.776Z,57.50
2022-08-04T13:18:33.516Z,56.90
2022-08-04T13:21:21.218Z,55.90
2022-08-04T13:24:09.534Z,56.20
2022-08-04T13:26:55.518Z,56.40
2022-08-04T13:30:00.085Z,57.10
2022-08-04T13:30:24.694Z,56.10
2022-08-04T13:32:28.640Z,57.80
2022-08-04T13:34:57.419Z,58.20
2022-08-04T13:37:34.919Z,58.10
2022-08-04T13:40:04.884Z,58.70
2022-08-04T13:42:35.661Z,58.90
2022-08-04T13:45:03.883Z,60.20
2022-08-04T13:47:37.918Z,58.70
2022-08-04T13:50:15.733Z,59.70
2022-08-04T13:52:43.709Z,59.40
2022-08-04T13:55:43.092Z,59.80
2022-08-04T13:58:24.173Z,60.40
2022-08-04T14:01:09.995Z,59.50
2022-08-04T14:03:59.427Z,59.90
2022-08-04T14:07:18.184Z,60.00
2022-08-04T14:10:03.990Z,59.40
2022-08-04T14:12:46.490Z,59.70
2022-08-04T14:16:01.599Z,59.30
2022-08-04T14:18:34.796Z,59.60
2022-08-04T14:21:08.278Z,61.00
2022-08-04T14:23:47.156Z,59.80
2022-08-04T14:26:19.447Z,61.40
2022-08-04T14:29:27.890Z,59.90
2022-08-04T14:34:33.483Z,60.70
2022-08-04T14:37:17.182Z,61.10
2022-08-04T14:40:18.266Z,60.70
2022-08-04T14:42:54.878Z,61.30
2022-08-04T14:45:35.621Z,60.80
2022-08-04T14:48:22.528Z,60.00
2022-08-04T14:50:50.815Z,60.10
2022-08-04T14:53:23.180Z,60.50
2022-08-04T14:55:56.515Z,60.80
2022-08-04T15:01:21.043Z,59.70
2022-08-04T15:03:52.157Z,59.80
2022-08-04T15:06:26.287Z,59.60
2022-08-04T15:11:48.084Z,60.50
2022-08-04T15:14:35.979Z,60.30
2022-08-04T15:17:03.045Z,60.40
2022-08-04T15:22:22.443Z,60.40
2022-08-04T15:24:55.106Z,60.10
2022-08-04T15:30:19.117Z,61.20
2022-08-04T15:32:53.127Z,59.70
2022-08-04T15:35:28.106Z,59.80
2022-08-04T15:37:59.000Z,61.20
2022-08-04T15:40:50.004Z,61.50
2022-08-04T15:43:20.942Z,63.40
2022-08-04T15:46:02.172Z,62.10
2022-08-04T15:48:40.651Z,59.70
2022-08-04T15:54:08.415Z,62.00
2022-08-04T15:56:48.318Z,61.80
2022-08-04T16:00:00.611Z,62.80
2022-08-04T16:02:39.540Z,62.30
2022-08-04T16:08:16.702Z,63.30
2022-08-04T16:10:46.416Z,62.90
2022-08-04T16:13:15.734Z,63.00
2022-08-04T16:15:42.765Z,61.00
2022-08-04T16:18:26.022Z,60.40
2022-08-04T16:21:08.193Z,60.60
2022-08-04T16:23:56.892Z,60.30
2022-08-04T16:26:54.665Z,60.70
2022-08-04T16:29:22.987Z,61.40
2022-08-04T16:32:05.268Z,62.30
2022-08-04T16:37:35.522Z,61.00
2022-08-04T16:40:40.946Z,61.30
2022-08-04T16:43:16.310Z,61.50
2022-08-04T16:46:00.186Z,62.70
2022-08-04T16:48:29.439Z,62.20
2022-08-04T16:51:05.279Z,66.40
2022-08-04T16:54:04.151Z,61.90
2022-08-04T16:56:34.395Z,61.60
2022-08-04T16:59:13.132Z,63.40
2022-08-04T17:01:47.537Z,66.20
2022-08-04T17:04:14.655Z,62.50
2022-08-04T17:06:43.175Z,63.20
2022-08-04T17:09:15.654Z,65.60
2022-08-04T17:11:43.943Z,63.20
2022-08-04T17:14:11.095Z,64.20
2022-08-04T17:16:40.815Z,63.60
2022-08-04T17:19:23.667Z,62.20
2022-08-04T17:22:00.407Z,63.10
2022-08-04T17:24:30.321Z,61.70
2022-08-04T17:26:58.870Z,62.50
2022-08-04T17:29:44.259Z,62.80
2022-08-04T17:32:19.850Z,63.60
2022-08-04T17:35:05.232Z,62.30
2022-08-04T17:37:39.915Z,63.10
2022-08-04T17:40:18.466Z,62.80
2022-08-04T17:44:04.223Z,62.70
2022-08-04T17:46:28.199Z,63.20
2022-08-04T17:49:07.586Z,63.50
2022-08-04T17:52:06.016Z,63.20
2022-08-04T17:54:38.957Z,63.40
2022-08-04T17:57:21.252Z,64.20
2022-08-04T17:59:56.372Z,63.90
2022-08-04T18:02:33.562Z,64.50
2022-08-04T18:08:45.870Z,64.80
2022-08-04T18:10:54.233Z,64.40
2022-08-04T18:13:24.131Z,64.80
2022-08-04T18:15:59.849Z,63.90
2022-08-04T18:18:26.689Z,63.70
2022-08-04T18:20:53.529Z,64.00
2022-08-04T18:23:20.290Z,63.90
2022-08-04T18:25:59.104Z,63.40
2022-08-04T18:28:28.622Z,63.30
2022-08-04T18:30:57.407Z,63.30
2022-08-04T18:33:40.454Z,64.00
2022-08-04T18:36:33.230Z,63.90
2022-08-04T18:39:13.222Z,63.40
2022-08-04T18:41:51.518Z,63.60
2022-08-04T18:44:30.949Z,63.40
2022-08-04T18:47:36.493Z,63.20
2022-08-04T18:51:00.122Z,63.10
2022-08-04T18:52:33.272Z,63.20
2022-08-04T18:55:01.918Z,63.40
2022-08-04T18:57:59.001Z,63.60
2022-08-04T19:00:17.622Z,63.80
2022-08-04T19:02:47.030Z,63.90
2022-08-04T19:05:17.193Z,64.10
2022-08-04T19:08:01.941Z,64.10
2022-08-04T19:10:31.720Z,65.00
2022-08-04T19:12:59.577Z,64.70
2022-08-04T19:15:34.235Z,64.70
2022-08-04T19:18:02.024Z,65.00
2022-08-04T19:20:30.749Z,65.00
2022-08-04T19:24:28.361Z,64.80
2022-08-04T19:28:37.177Z,64.70
2022-08-04T19:31:08.850Z,64.80
2022-08-04T19:33:58.710Z,64.80
2022-08-04T19:36:29.572Z,64.90
2022-08-04T19:48:12.269Z,65.60
2022-08-04T19:50:15.128Z,65.60
2022-08-04T19:52:45.894Z,65.60
2022-08-04T19:55:22.314Z,66.10
2022-08-04T19:57:51.121Z,66.90
2022-08-04T20:00:32.963Z,67.60
2022-08-04T20:03:00.586Z,69.00
2022-08-04T20:05:52.729Z,69.90
2022-08-04T20:08:15.366Z,71.20
2022-08-04T20:10:47.052Z,71.50
2022-08-04T20:16:30.252Z,72.50
2022-08-04T20:24:44.131Z,71.70
2022-08-04T20:27:17.871Z,72.30
2022-08-04T20:29:48.996Z,71.50
2022-08-04T20:32:19.683Z,71.70
2022-08-04T20:34:47.990Z,71.90
2022-08-04T20:37:15.563Z,71.80
2022-08-04T20:42:34.447Z,71.80
2022-08-04T20:45:02.165Z,72.50
2022-08-04T20:47:35.049Z,71.70
2022-08-04T20:50:09.026Z,71.50
2022-08-04T20:52:37.859Z,72.00
2022-08-04T20:55:06.544Z,72.10
2022-08-04T20:57:47.727Z,73.10
2022-08-04T21:00:26.419Z,72.60
2022-08-04T21:02:57.997Z,72.80
2022-08-04T21:05:26.603Z,72.60
2022-08-04T21:07:59.444Z,73.20
2022-08-04T21:10:27.350Z,73.60
2022-08-04T21:12:54.790Z,73.90
2022-08-04T21:15:25.720Z,74.30
2022-08-04T21:17:59.074Z,74.60
2022-08-04T21:20:32.362Z,75.00
2022-08-04T21:26:01.740Z,75.60
2022-08-04T21:28:29.400Z,76.00
2022-08-04T21:30:59.721Z,76.60
2022-08-04T21:33:50.000Z,76.80
2022-08-04T21:36:19.510Z,77.20
2022-08-04T21:42:19.769Z,77.60
2022-08-04T21:44:25.815Z,78.10
2022-08-04T21:46:54.708Z,78.10
2022-08-04T21:49:21.751Z,78.10
2022-08-04T21:52:00.685Z,78.20
2022-08-04T21:57:19.659Z,78.60
2022-08-04T21:59:52.041Z,78.50
2022-08-04T22:02:19.405Z,78.90
2022-08-04T22:04:48.372Z,78.80
2022-08-04T22:07:22.949Z,79.10
2022-08-04T22:10:02.320Z,78.90
2022-08-04T22:12:33.866Z,79.00
2022-08-04T22:15:23.299Z,79.30
2022-08-04T22:17:49.896Z,79.10
2022-08-04T22:23:16.701Z,79.50
2022-08-04T22:25:45.001Z,79.70
2022-08-04T22:28:28.387Z,79.60
2022-08-04T22:30:57.369Z,79.60
2022-08-04T22:33:54.379Z,79.80
2022-08-04T22:36:13.365Z,79.80
2022-08-04T22:42:03.085Z,79.70
2022-08-04T22:44:22.434Z,80.00
2022-08-04T22:46:50.829Z,80.00
2022-08-04T22:49:17.960Z,80.10
2022-08-04T22:51:50.980Z,80.20
2022-08-04T22:54:18.191Z,80.30
2022-08-04T22:56:45.577Z,80.20
2022-08-04T22:59:12.699Z,80.20
2022-08-04T23:01:59.735Z,80.40
2022-08-04T23:04:28.913Z,80.50
2022-08-04T23:09:50.022Z,80.90
2022-08-04T23:12:27.020Z,80.60
2022-08-04T23:14:58.738Z,80.70
2022-08-04T23:17:27.696Z,81.00
2022-08-04T23:19:58.805Z,81.70
2022-08-04T23:22:41.003Z,81.90
2022-08-04T23:25:15.235Z,82.70
2022-08-04T23:27:51.012Z,82.80
2022-08-04T23:30:29.452Z,83.10
2022-08-04T23:35:48.169Z,83.60
2022-08-04T23:38:30.430Z,83.60
2022-08-04T23:41:13.593Z,83.70
2022-08-04T23:43:54.896Z,83.70
2022-08-04T23:49:16.861Z,84.00
2022-08-04T23:51:43.617Z,84.10
2022-08-04T23:54:10.220Z,84.20
2022-08-04T23:56:37.836Z,84.30
2022-08-04T23:59:04.898Z,83.20
